sensor_id;sensor_type;location;lat;lon;timestamp;pressure;altitude;pressure_sealevel;temperature;humidity
5753;BME280;2901;42.140;24.760;2023-02-13T00:01:03;101376.84;;;6.16;69.25
5753;BME280;2901;42.140;24.760;2023-02-13T00:03:29;101381.97;;;6.16;69.24
5753;BME280;2901;42.140;24.760;2023-02-13T00:05:54;101384.50;;;6.15;69.46
5753;BME280;2901;42.140;24.760;2023-02-13T00:08:19;101386.97;;;6.12;70.36
5753;BME280;2901;42.140;24.760;2023-02-13T00:10:46;101384.84;;;6.03;70.08
5753;BME280;2901;42.140;24.760;2023-02-13T00:13:11;101389.81;;;5.99;70.68
5753;BME280;2901;42.140;24.760;2023-02-13T00:15:37;101390.63;;;5.98;71.00
5753;BME280;2901;42.140;24.760;2023-02-13T00:18:02;101390.31;;;5.90;71.15
5753;BME280;2901;42.140;24.760;2023-02-13T00:20:28;101391.13;;;5.89;71.32
5753;BME280;2901;42.140;24.760;2023-02-13T00:22:53;101399.78;;;5.91;71.27
5753;BME280;2901;42.140;24.760;2023-02-13T00:25:19;101395.66;;;5.95;71.34
5753;BME280;2901;42.140;24.760;2023-02-13T00:27:44;101396.28;;;5.89;71.22
5753;BME280;2901;42.140;24.760;2023-02-13T00:30:10;101390.75;;;5.82;71.70
5753;BME280;2901;42.140;24.760;2023-02-13T00:32:35;101404.13;;;5.92;71.91
5753;BME280;2901;42.140;24.760;2023-02-13T00:35:00;101400.03;;;5.97;71.21
5753;BME280;2901;42.140;24.760;2023-02-13T00:37:26;101395.03;;;6.00;71.07
5753;BME280;2901;42.140;24.760;2023-02-13T00:39:51;101395.91;;;6.01;70.85
5753;BME280;2901;42.140;24.760;2023-02-13T00:42:17;101403.69;;;6.02;70.81
5753;BME280;2901;42.140;24.760;2023-02-13T00:44:42;101395.84;;;5.99;71.09
5753;BME280;2901;42.140;24.760;2023-02-13T00:47:08;101397.66;;;6.02;71.04
5753;BME280;2901;42.140;24.760;2023-02-13T00:49:33;101389.28;;;6.06;70.71
5753;BME280;2901;42.140;24.760;2023-02-13T00:51:59;101397.13;;;6.09;71.20
5753;BME280;2901;42.140;24.760;2023-02-13T00:54:24;101397.25;;;6.12;70.93
5753;BME280;2901;42.140;24.760;2023-02-13T00:56:50;101391.34;;;6.14;70.29
5753;BME280;2901;42.140;24.760;2023-02-13T00:59:15;101397.97;;;6.09;70.59
5753;BME280;2901;42.140;24.760;2023-02-13T01:01:41;101391.78;;;6.04;71.01
5753;BME280;2901;42.140;24.760;2023-02-13T01:04:07;101398.69;;;6.05;71.16
5753;BME280;2901;42.140;24.760;2023-02-13T01:06:32;101401.94;;;6.01;71.10
5753;BME280;2901;42.140;24.760;2023-02-13T01:08:58;101403.69;;;6.02;70.97
5753;BME280;2901;42.140;24.760;2023-02-13T01:11:23;101401.50;;;6.11;70.59
5753;BME280;2901;42.140;24.760;2023-02-13T01:13:48;101400.69;;;6.12;70.19
5753;BME280;2901;42.140;24.760;2023-02-13T01:16:14;101398.84;;;6.10;70.64
5753;BME280;2901;42.140;24.760;2023-02-13T01:18:42;101394.53;;;6.09;70.44
5753;BME280;2901;42.140;24.760;2023-02-13T01:21:11;101392.16;;;6.13;70.23
5753;BME280;2901;42.140;24.760;2023-02-13T01:23:39;101394.03;;;6.17;70.31
5753;BME280;2901;42.140;24.760;2023-02-13T01:26:06;101393.53;;;6.26;70.02
5753;BME280;2901;42.140;24.760;2023-02-13T01:28:32;101404.56;;;6.23;69.66
5753;BME280;2901;42.140;24.760;2023-02-13T01:30:58;101396.16;;;6.28;69.71
5753;BME280;2901;42.140;24.760;2023-02-13T01:33:25;101393.47;;;6.24;68.95
5753;BME280;2901;42.140;24.760;2023-02-13T01:35:51;101402.31;;;6.31;69.27
5753;BME280;2901;42.140;24.760;2023-02-13T01:38:16;101400.63;;;6.32;69.33
5753;BME280;2901;42.140;24.760;2023-02-13T01:40:46;101406.59;;;6.31;69.14
5753;BME280;2901;42.140;24.760;2023-02-13T01:43:12;101413.38;;;6.29;69.07
5753;BME280;2901;42.140;24.760;2023-02-13T01:45:37;101413.38;;;6.29;69.12
5753;BME280;2901;42.140;24.760;2023-02-13T01:48:12;101420.00;;;6.23;69.61
5753;BME280;2901;42.140;24.760;2023-02-13T01:50:42;101407.81;;;6.19;69.58
5753;BME280;2901;42.140;24.760;2023-02-13T01:53:15;101419.88;;;6.20;69.96
5753;BME280;2901;42.140;24.760;2023-02-13T01:55:53;101421.28;;;6.12;70.13
5753;BME280;2901;42.140;24.760;2023-02-13T01:58:22;101420.97;;;5.86;71.65
5753;BME280;2901;42.140;24.760;2023-02-13T02:00:49;101424.50;;;5.70;72.48
5753;BME280;2901;42.140;24.760;2023-02-13T02:03:37;101422.31;;;5.21;75.96
5753;BME280;2901;42.140;24.760;2023-02-13T02:06:06;101428.56;;;4.90;78.06
5753;BME280;2901;42.140;24.760;2023-02-13T02:08:34;101430.38;;;4.57;80.19
5753;BME280;2901;42.140;24.760;2023-02-13T02:11:08;101428.25;;;4.31;82.21
5753;BME280;2901;42.140;24.760;2023-02-13T02:13:36;101431.94;;;4.19;83.06
5753;BME280;2901;42.140;24.760;2023-02-13T02:16:01;101441.56;;;4.24;83.50
5753;BME280;2901;42.140;24.760;2023-02-13T02:18:27;101438.00;;;4.22;83.35
5753;BME280;2901;42.140;24.760;2023-02-13T02:26:59;101458.13;;;3.64;86.70
5753;BME280;2901;42.140;24.760;2023-02-13T02:32:10;101461.31;;;3.44;88.25
5753;BME280;2901;42.140;24.760;2023-02-13T02:40:42;101470.72;;;3.29;90.00
5753;BME280;2901;42.140;24.760;2023-02-13T02:45:53;101476.78;;;3.14;90.74
5753;BME280;2901;42.140;24.760;2023-02-13T02:48:31;101479.94;;;3.10;91.52
5753;BME280;2901;42.140;24.760;2023-02-13T02:54:12;101472.72;;;3.03;92.03
5753;BME280;2901;42.140;24.760;2023-02-13T02:57:03;101478.94;;;2.92;92.53
5753;BME280;2901;42.140;24.760;2023-02-13T02:59:31;101487.06;;;2.85;92.85
5753;BME280;2901;42.140;24.760;2023-02-13T03:02:17;101487.41;;;2.77;93.38
5753;BME280;2901;42.140;24.760;2023-02-13T03:05:02;101489.47;;;2.68;93.93
5753;BME280;2901;42.140;24.760;2023-02-13T03:07:46;101497.25;;;2.69;94.15
5753;BME280;2901;42.140;24.760;2023-02-13T03:10:17;101491.75;;;2.78;93.90
5753;BME280;2901;42.140;24.760;2023-02-13T03:13:10;101495.63;;;2.86;93.75
5753;BME280;2901;42.140;24.760;2023-02-13T03:15:46;101494.38;;;2.94;93.21
5753;BME280;2901;42.140;24.760;2023-02-13T03:18:38;101489.53;;;2.98;92.43
5753;BME280;2901;42.140;24.760;2023-02-13T03:21:42;101482.97;;;3.03;92.46
5753;BME280;2901;42.140;24.760;2023-02-13T03:24:39;101483.06;;;3.05;91.92
5753;BME280;2901;42.140;24.760;2023-02-13T03:27:16;101484.13;;;3.08;91.56
5753;BME280;2901;42.140;24.760;2023-02-13T03:30:21;101495.31;;;3.10;92.21
5753;BME280;2901;42.140;24.760;2023-02-13T03:32:59;101485.63;;;3.05;91.97
5753;BME280;2901;42.140;24.760;2023-02-13T03:35:46;101497.81;;;3.09;91.39
5753;BME280;2901;42.140;24.760;2023-02-13T03:41:24;101495.13;;;3.07;92.10
5753;BME280;2901;42.140;24.760;2023-02-13T03:46:43;101499.94;;;3.01;91.58
5753;BME280;2901;42.140;24.760;2023-02-13T03:49:16;101504.88;;;2.98;91.73
5753;BME280;2901;42.140;24.760;2023-02-13T03:52:22;101497.66;;;2.91;91.80
5753;BME280;2901;42.140;24.760;2023-02-13T03:54:52;101497.66;;;2.91;91.99
5753;BME280;2901;42.140;24.760;2023-02-13T03:57:39;101497.75;;;2.93;92.27
5753;BME280;2901;42.140;24.760;2023-02-13T04:00:27;101497.53;;;2.90;92.09
5753;BME280;2901;42.140;24.760;2023-02-13T04:05:26;101501.28;;;2.80;91.59
5753;BME280;2901;42.140;24.760;2023-02-13T04:07:53;101495.81;;;2.74;92.15
5753;BME280;2901;42.140;24.760;2023-02-13T04:10:20;101504.31;;;2.73;93.16
5753;BME280;2901;42.140;24.760;2023-02-13T04:12:52;101502.44;;;2.71;92.72
5753;BME280;2901;42.140;24.760;2023-02-13T04:15:36;101509.03;;;2.67;93.38
5753;BME280;2901;42.140;24.760;2023-02-13T04:18:21;101504.81;;;2.68;93.70
5753;BME280;2901;42.140;24.760;2023-02-13T04:20:48;101499.78;;;2.69;93.37
5753;BME280;2901;42.140;24.760;2023-02-13T04:23:14;101502.78;;;2.62;93.82
5753;BME280;2901;42.140;24.760;2023-02-13T04:25:43;101503.69;;;2.63;94.19
5753;BME280;2901;42.140;24.760;2023-02-13T04:28:10;101502.44;;;2.56;94.54
5753;BME280;2901;42.140;24.760;2023-02-13T04:30:35;101496.09;;;2.49;95.00
5753;BME280;2901;42.140;24.760;2023-02-13T04:33:01;101500.50;;;2.52;94.73
5753;BME280;2901;42.140;24.760;2023-02-13T04:35:26;101500.41;;;2.50;93.87
5753;BME280;2901;42.140;24.760;2023-02-13T04:37:52;101501.22;;;2.49;93.89
5753;BME280;2901;42.140;24.760;2023-02-13T04:40:17;101495.66;;;2.42;93.87
5753;BME280;2901;42.140;24.760;2023-02-13T04:42:43;101496.09;;;2.35;94.39
5753;BME280;2901;42.140;24.760;2023-02-13T04:45:08;101505.78;;;2.26;94.76
5753;BME280;2901;42.140;24.760;2023-02-13T04:47:34;101513.34;;;2.24;94.36
5753;BME280;2901;42.140;24.760;2023-02-13T04:49:59;101507.97;;;2.20;94.71
5753;BME280;2901;42.140;24.760;2023-02-13T04:52:25;101517.59;;;2.24;94.48
5753;BME280;2901;42.140;24.760;2023-02-13T04:54:50;101519.50;;;2.28;95.38
5753;BME280;2901;42.140;24.760;2023-02-13T04:57:15;101510.47;;;2.33;94.52
5753;BME280;2901;42.140;24.760;2023-02-13T04:59:41;101517.34;;;2.34;95.00
5753;BME280;2901;42.140;24.760;2023-02-13T05:02:06;101513.97;;;2.35;94.54
5753;BME280;2901;42.140;24.760;2023-02-13T05:04:32;101513.00;;;2.33;94.70
5753;BME280;2901;42.140;24.760;2023-02-13T05:06:58;101517.69;;;2.40;94.30
5753;BME280;2901;42.140;24.760;2023-02-13T05:09:23;101516.72;;;2.38;94.38
5753;BME280;2901;42.140;24.760;2023-02-13T05:11:53;101518.31;;;2.36;94.47
5753;BME280;2901;42.140;24.760;2023-02-13T05:14:19;101524.63;;;2.28;94.10
5753;BME280;2901;42.140;24.760;2023-02-13T05:16:45;101527.78;;;2.09;94.03
5753;BME280;2901;42.140;24.760;2023-02-13T05:19:10;101523.38;;;2.06;94.14
5753;BME280;2901;42.140;24.760;2023-02-13T05:21:35;101524.94;;;2.04;94.34
5753;BME280;2901;42.140;24.760;2023-02-13T05:24:19;101533.59;;;2.06;94.03
5753;BME280;2901;42.140;24.760;2023-02-13T05:26:45;101533.41;;;2.03;94.46
5753;BME280;2901;42.140;24.760;2023-02-13T05:29:10;101540.25;;;2.04;94.12
5753;BME280;2901;42.140;24.760;2023-02-13T05:31:51;101540.44;;;2.07;94.38
5753;BME280;2901;42.140;24.760;2023-02-13T05:34:18;101548.38;;;1.97;95.45
5753;BME280;2901;42.140;24.760;2023-02-13T05:36:43;101554.84;;;1.92;95.84
5753;BME280;2901;42.140;24.760;2023-02-13T05:39:09;101556.88;;;1.83;96.37
5753;BME280;2901;42.140;24.760;2023-02-13T05:41:34;101558.38;;;1.94;95.94
5753;BME280;2901;42.140;24.760;2023-02-13T05:43:59;101568.53;;;1.93;96.12
5753;BME280;2901;42.140;24.760;2023-02-13T05:46:25;101568.59;;;1.94;96.07
5753;BME280;2901;42.140;24.760;2023-02-13T05:48:51;101569.66;;;1.98;96.14
5753;BME280;2901;42.140;24.760;2023-02-13T05:51:17;101578.88;;;2.09;95.48
5753;BME280;2901;42.140;24.760;2023-02-13T05:53:43;101568.13;;;2.15;95.26
5753;BME280;2901;42.140;24.760;2023-02-13T05:56:08;101576.78;;;2.17;95.21
5753;BME280;2901;42.140;24.760;2023-02-13T05:58:34;101577.63;;;2.02;95.95
5753;BME280;2901;42.140;24.760;2023-02-13T06:00:59;101580.72;;;2.12;95.77
5753;BME280;2901;42.140;24.760;2023-02-13T06:03:27;101575.53;;;2.10;95.70
5753;BME280;2901;42.140;24.760;2023-02-13T06:05:53;101569.38;;;2.06;95.60
5753;BME280;2901;42.140;24.760;2023-02-13T06:08:19;101579.59;;;2.06;95.23
5753;BME280;2901;42.140;24.760;2023-02-13T06:10:49;101583.69;;;2.04;94.96
5753;BME280;2901;42.140;24.760;2023-02-13T06:13:15;101585.47;;;2.05;94.83
5753;BME280;2901;42.140;24.760;2023-02-13T06:15:41;101577.03;;;2.06;95.30
5753;BME280;2901;42.140;24.760;2023-02-13T06:18:06;101582.41;;;2.11;95.33
5753;BME280;2901;42.140;24.760;2023-02-13T06:20:32;101584.53;;;2.18;94.91
5753;BME280;2901;42.140;24.760;2023-02-13T06:22:58;101582.69;;;2.16;95.26
5753;BME280;2901;42.140;24.760;2023-02-13T06:25:23;101583.28;;;2.12;95.06
5753;BME280;2901;42.140;24.760;2023-02-13T06:27:49;101595.28;;;2.13;95.29
5753;BME280;2901;42.140;24.760;2023-02-13T06:30:15;101588.81;;;2.04;94.76
5753;BME280;2901;42.140;24.760;2023-02-13T06:32:41;101594.72;;;2.03;94.91
5753;BME280;2901;42.140;24.760;2023-02-13T06:35:07;101586.31;;;2.19;94.92
5753;BME280;2901;42.140;24.760;2023-02-13T06:37:32;101580.38;;;2.33;94.31
5753;BME280;2901;42.140;24.760;2023-02-13T06:39:58;101589.53;;;2.44;93.94
5753;BME280;2901;42.140;24.760;2023-02-13T06:42:23;101587.00;;;2.59;93.58
5753;BME280;2901;42.140;24.760;2023-02-13T06:44:49;101587.19;;;2.77;92.98
5753;BME280;2901;42.140;24.760;2023-02-13T06:47:14;101581.13;;;2.89;92.15
5753;BME280;2901;42.140;24.760;2023-02-13T06:49:40;101567.69;;;2.93;91.93
5753;BME280;2901;42.140;24.760;2023-02-13T06:52:05;101591.84;;;3.13;91.34
5753;BME280;2901;42.140;24.760;2023-02-13T06:54:30;101578.16;;;3.27;90.68
5753;BME280;2901;42.140;24.760;2023-02-13T06:56:56;101571.25;;;3.41;90.17
5753;BME280;2901;42.140;24.760;2023-02-13T06:59:21;101574.63;;;3.56;89.54
5753;BME280;2901;42.140;24.760;2023-02-13T07:01:46;101585.31;;;3.63;88.98
5753;BME280;2901;42.140;24.760;2023-02-13T07:04:12;101577.06;;;3.69;88.12
5753;BME280;2901;42.140;24.760;2023-02-13T07:06:37;101582.00;;;3.81;88.08
5753;BME280;2901;42.140;24.760;2023-02-13T07:09:03;101573.59;;;3.99;87.65
5753;BME280;2901;42.140;24.760;2023-02-13T07:11:29;101566.72;;;4.14;86.88
5753;BME280;2901;42.140;24.760;2023-02-13T07:13:54;101565.66;;;4.27;86.32
5753;BME280;2901;42.140;24.760;2023-02-13T07:16:20;101565.41;;;4.39;85.58
5753;BME280;2901;42.140;24.760;2023-02-13T07:18:45;101572.56;;;4.44;84.31
5753;BME280;2901;42.140;24.760;2023-02-13T07:21:10;101571.34;;;4.22;84.07
5753;BME280;2901;42.140;24.760;2023-02-13T07:23:36;101571.28;;;4.20;84.33
5753;BME280;2901;42.140;24.760;2023-02-13T07:26:02;101570.41;;;4.03;84.63
5753;BME280;2901;42.140;24.760;2023-02-13T07:28:28;101570.69;;;3.93;85.21
5753;BME280;2901;42.140;24.760;2023-02-13T07:30:54;101573.91;;;4.05;85.08
5753;BME280;2901;42.140;24.760;2023-02-13T07:33:20;101571.84;;;4.14;84.88
5753;BME280;2901;42.140;24.760;2023-02-13T07:35:46;101577.84;;;4.31;84.52
5753;BME280;2901;42.140;24.760;2023-02-13T07:38:12;101569.59;;;4.37;83.76
5753;BME280;2901;42.140;24.760;2023-02-13T07:40:37;101580.16;;;4.43;83.77
5753;BME280;2901;42.140;24.760;2023-02-13T07:43:02;101576.38;;;4.52;82.91
5753;BME280;2901;42.140;24.760;2023-02-13T07:45:28;101576.63;;;4.57;82.33
5753;BME280;2901;42.140;24.760;2023-02-13T07:47:54;101568.78;;;4.54;82.38
5753;BME280;2901;42.140;24.760;2023-02-13T07:50:20;101573.06;;;4.55;82.06
5753;BME280;2901;42.140;24.760;2023-02-13T07:52:55;101573.41;;;4.61;82.11
5753;BME280;2901;42.140;24.760;2023-02-13T07:55:21;101557.13;;;4.60;81.87
5753;BME280;2901;42.140;24.760;2023-02-13T07:57:47;101576.94;;;4.63;82.29
5753;BME280;2901;42.140;24.760;2023-02-13T08:00:13;101572.56;;;4.78;81.39
5753;BME280;2901;42.140;24.760;2023-02-13T08:02:38;101560.91;;;4.85;80.77
5753;BME280;2901;42.140;24.760;2023-02-13T08:05:04;101568.34;;;4.96;80.49
5753;BME280;2901;42.140;24.760;2023-02-13T08:07:29;101559.31;;;5.04;80.55
5753;BME280;2901;42.140;24.760;2023-02-13T08:09:55;101555.00;;;5.03;79.50
5753;BME280;2901;42.140;24.760;2023-02-13T08:12:39;101558.28;;;5.01;79.85
5753;BME280;2901;42.140;24.760;2023-02-13T08:15:05;101563.50;;;5.02;80.50
5753;BME280;2901;42.140;24.760;2023-02-13T08:17:31;101556.31;;;5.13;80.44
5753;BME280;2901;42.140;24.760;2023-02-13T08:19:56;101557.13;;;5.12;79.62
5753;BME280;2901;42.140;24.760;2023-02-13T08:22:22;101557.78;;;5.08;80.18
5753;BME280;2901;42.140;24.760;2023-02-13T08:24:47;101548.47;;;5.28;79.31
5753;BME280;2901;42.140;24.760;2023-02-13T08:27:13;101546.25;;;5.35;78.96
5753;BME280;2901;42.140;24.760;2023-02-13T08:29:39;101549.53;;;5.50;78.19
5753;BME280;2901;42.140;24.760;2023-02-13T08:32:05;101549.44;;;5.66;78.04
5753;BME280;2901;42.140;24.760;2023-02-13T08:34:31;101548.31;;;5.79;77.18
5753;BME280;2901;42.140;24.760;2023-02-13T08:36:56;101545.41;;;5.89;76.70
5753;BME280;2901;42.140;24.760;2023-02-13T08:39:21;101546.34;;;5.91;76.63
5753;BME280;2901;42.140;24.760;2023-02-13T08:41:47;101547.50;;;5.80;76.67
5753;BME280;2901;42.140;24.760;2023-02-13T08:44:12;101536.75;;;5.69;77.14
5753;BME280;2901;42.140;24.760;2023-02-13T08:46:37;101550.19;;;5.83;76.82
5753;BME280;2901;42.140;24.760;2023-02-13T08:49:03;101546.69;;;5.81;76.54
5753;BME280;2901;42.140;24.760;2023-02-13T08:51:28;101543.19;;;5.79;76.13
5753;BME280;2901;42.140;24.760;2023-02-13T08:53:54;101533.16;;;5.85;76.01
5753;BME280;2901;42.140;24.760;2023-02-13T08:56:19;101533.88;;;6.00;76.39
5753;BME280;2901;42.140;24.760;2023-02-13T08:58:48;101531.28;;;6.19;74.82
5753;BME280;2901;42.140;24.760;2023-02-13T09:01:13;101534.28;;;6.29;74.50
5753;BME280;2901;42.140;24.760;2023-02-13T09:03:39;101542.19;;;6.33;74.25
5753;BME280;2901;42.140;24.760;2023-02-13T09:06:04;101534.63;;;6.57;73.84
5753;BME280;2901;42.140;24.760;2023-02-13T09:08:30;101540.22;;;6.47;72.95
5753;BME280;2901;42.140;24.760;2023-02-13T09:11:00;101524.63;;;6.44;72.92
5753;BME280;2901;42.140;24.760;2023-02-13T09:13:27;101529.25;;;6.51;72.80
5753;BME280;2901;42.140;24.760;2023-02-13T09:15:52;101523.97;;;6.48;73.32
5753;BME280;2901;42.140;24.760;2023-02-13T09:18:18;101524.56;;;6.61;73.06
5753;BME280;2901;42.140;24.760;2023-02-13T09:20:44;101513.31;;;6.80;71.99
5753;BME280;2901;42.140;24.760;2023-02-13T09:23:09;101508.75;;;6.95;70.63
5753;BME280;2901;42.140;24.760;2023-02-13T09:25:35;101503.50;;;6.92;70.74
5753;BME280;2901;42.140;24.760;2023-02-13T09:28:00;101506.19;;;6.95;71.21
5753;BME280;2901;42.140;24.760;2023-02-13T09:30:26;101506.47;;;7.01;70.63
5753;BME280;2901;42.140;24.760;2023-02-13T09:32:52;101505.25;;;7.14;69.86
5753;BME280;2901;42.140;24.760;2023-02-13T09:35:18;101499.44;;;7.19;69.46
5753;BME280;2901;42.140;24.760;2023-02-13T09:37:44;101494.81;;;7.11;68.96
5753;BME280;2901;42.140;24.760;2023-02-13T09:40:22;101499.38;;;7.18;70.09
5753;BME280;2901;42.140;24.760;2023-02-13T09:42:49;101485.22;;;7.29;68.96
5753;BME280;2901;42.140;24.760;2023-02-13T09:45:16;101482.41;;;7.23;69.31
5753;BME280;2901;42.140;24.760;2023-02-13T09:47:44;101479.59;;;7.39;69.06
5753;BME280;2901;42.140;24.760;2023-02-13T09:50:12;101467.69;;;7.43;68.97
5753;BME280;2901;42.140;24.760;2023-02-13T09:52:39;101473.56;;;7.39;68.48
5753;BME280;2901;42.140;24.760;2023-02-13T09:55:18;101468.16;;;7.55;68.08
5753;BME280;2901;42.140;24.760;2023-02-13T09:57:57;101462.47;;;7.63;66.91
5753;BME280;2901;42.140;24.760;2023-02-13T10:00:33;101459.41;;;7.73;67.71
5753;BME280;2901;42.140;24.760;2023-02-13T10:11:35;101432.25;;;8.84;62.09
5753;BME280;2901;42.140;24.760;2023-02-13T10:22:04;101408.09;;;9.10;59.06
5753;BME280;2901;42.140;24.760;2023-02-13T10:24:55;101402.34;;;9.20;57.81
5753;BME280;2901;42.140;24.760;2023-02-13T10:27:30;101398.72;;;9.44;57.08
5753;BME280;2901;42.140;24.760;2023-02-13T10:30:04;101400.66;;;9.21;56.76
5753;BME280;2901;42.140;24.760;2023-02-13T10:35:17;101393.63;;;9.47;55.51
5753;BME280;2901;42.140;24.760;2023-02-13T10:37:44;101383.38;;;9.50;55.44
5753;BME280;2901;42.140;24.760;2023-02-13T10:40:15;101370.50;;;9.51;55.13
5753;BME280;2901;42.140;24.760;2023-02-13T10:42:45;101367.44;;;9.64;54.60
5753;BME280;2901;42.140;24.760;2023-02-13T10:50:55;101347.78;;;9.72;53.36
5753;BME280;2901;42.140;24.760;2023-02-13T10:56:35;101341.50;;;9.94;51.45
5753;BME280;2901;42.140;24.760;2023-02-13T10:59:24;101335.44;;;9.94;51.97
5753;BME280;2901;42.140;24.760;2023-02-13T11:04:42;101343.94;;;10.22;49.83
5753;BME280;2901;42.140;24.760;2023-02-13T11:07:13;101332.06;;;10.30;49.45
5753;BME280;2901;42.140;24.760;2023-02-13T11:09:41;101330.72;;;10.46;48.81
5753;BME280;2901;42.140;24.760;2023-02-13T11:12:31;101319.59;;;10.50;47.79
5753;BME280;2901;42.140;24.760;2023-02-13T11:14:59;101313.41;;;10.45;46.71
5753;BME280;2901;42.140;24.760;2023-02-13T11:17:28;101309.53;;;10.26;47.46
5753;BME280;2901;42.140;24.760;2023-02-13T11:19:56;101307.50;;;10.15;48.37
5753;BME280;2901;42.140;24.760;2023-02-13T11:22:35;101304.97;;;10.16;46.40
5753;BME280;2901;42.140;24.760;2023-02-13T11:25:06;101300.00;;;9.91;47.72
5753;BME280;2901;42.140;24.760;2023-02-13T11:27:35;101293.44;;;10.05;47.36
5753;BME280;2901;42.140;24.760;2023-02-13T11:30:10;101276.38;;;10.13;47.55
5753;BME280;2901;42.140;24.760;2023-02-13T11:33:04;101278.72;;;10.38;47.86
5753;BME280;2901;42.140;24.760;2023-02-13T11:35:38;101272.84;;;10.46;45.86
5753;BME280;2901;42.140;24.760;2023-02-13T11:40:35;101259.50;;;10.66;45.54
5753;BME280;2901;42.140;24.760;2023-02-13T11:43:03;101256.09;;;10.69;46.79
5753;BME280;2901;42.140;24.760;2023-02-13T11:45:31;101243.09;;;10.66;47.20
5753;BME280;2901;42.140;24.760;2023-02-13T11:47:56;101251.38;;;10.91;46.17
5753;BME280;2901;42.140;24.760;2023-02-13T11:50:29;101242.25;;;11.10;45.77
5753;BME280;2901;42.140;24.760;2023-02-13T11:53:06;101235.19;;;11.03;44.62
5753;BME280;2901;42.140;24.760;2023-02-13T11:55:38;101232.34;;;10.89;44.85
5753;BME280;2901;42.140;24.760;2023-02-13T11:58:21;101223.25;;;11.11;44.70
5753;BME280;2901;42.140;24.760;2023-02-13T12:00:47;101221.81;;;11.25;43.72
5753;BME280;2901;42.140;24.760;2023-02-13T12:06:00;101212.38;;;11.30;42.54
5753;BME280;2901;42.140;24.760;2023-02-13T12:08:27;101209.09;;;11.40;41.78
5753;BME280;2901;42.140;24.760;2023-02-13T12:10:54;101215.78;;;11.28;41.12
5753;BME280;2901;42.140;24.760;2023-02-13T12:13:26;101215.47;;;11.11;41.45
5753;BME280;2901;42.140;24.760;2023-02-13T12:16:03;101192.88;;;11.04;41.76
5753;BME280;2901;42.140;24.760;2023-02-13T12:18:34;101199.78;;;11.04;41.62
5753;BME280;2901;42.140;24.760;2023-02-13T12:36:20;101194.47;;;11.42;39.26
5753;BME280;2901;42.140;24.760;2023-02-13T12:41:48;101186.13;;;11.62;38.17
5753;BME280;2901;42.140;24.760;2023-02-13T12:44:38;101178.44;;;11.68;38.25
5753;BME280;2901;42.140;24.760;2023-02-13T12:47:14;101176.53;;;11.58;38.59
5753;BME280;2901;42.140;24.760;2023-02-13T12:52:52;101163.75;;;11.70;38.77
5753;BME280;2901;42.140;24.760;2023-02-13T12:58:14;101168.06;;;11.69;39.47
5753;BME280;2901;42.140;24.760;2023-02-13T13:12:20;101140.81;;;12.62;35.61
5753;BME280;2901;42.140;24.760;2023-02-13T13:23:01;101147.31;;;12.26;36.38
5753;BME280;2901;42.140;24.760;2023-02-13T13:28:22;101135.72;;;12.03;37.02
5753;BME280;2901;42.140;24.760;2023-02-13T13:30:49;101133.03;;;11.95;37.10
5753;BME280;2901;42.140;24.760;2023-02-13T13:33:17;101131.56;;;12.14;37.63
5753;BME280;2901;42.140;24.760;2023-02-13T13:38:47;101114.44;;;12.30;35.92
5753;BME280;2901;42.140;24.760;2023-02-13T13:47:01;101115.31;;;12.32;35.33
5753;BME280;2901;42.140;24.760;2023-02-13T13:49:51;101124.53;;;12.07;35.99
5753;BME280;2901;42.140;24.760;2023-02-13T13:52:26;101118.63;;;12.19;36.37
5753;BME280;2901;42.140;24.760;2023-02-13T13:54:53;101117.19;;;12.40;35.92
5753;BME280;2901;42.140;24.760;2023-02-13T13:57:26;101120.84;;;12.58;35.21
5753;BME280;2901;42.140;24.760;2023-02-13T14:05:19;101111.50;;;12.75;34.46
5753;BME280;2901;42.140;24.760;2023-02-13T14:07:48;101107.25;;;12.84;34.49
5753;BME280;2901;42.140;24.760;2023-02-13T14:13:00;101104.75;;;12.92;34.22
5753;BME280;2901;42.140;24.760;2023-02-13T14:17:59;101097.06;;;13.06;34.02
5753;BME280;2901;42.140;24.760;2023-02-13T14:20:42;101091.03;;;13.08;34.49
5753;BME280;2901;42.140;24.760;2023-02-13T14:28:41;101092.75;;;13.06;34.04
5753;BME280;2901;42.140;24.760;2023-02-13T14:34:08;101101.34;;;12.99;34.55
5753;BME280;2901;42.140;24.760;2023-02-13T14:39:42;101083.00;;;12.84;34.31
5753;BME280;2901;42.140;24.760;2023-02-13T14:42:26;101075.78;;;12.56;34.60
5753;BME280;2901;42.140;24.760;2023-02-13T14:44:57;101086.91;;;12.45;35.02
5753;BME280;2901;42.140;24.760;2023-02-13T14:49:50;101086.66;;;12.23;35.67
5753;BME280;2901;42.140;24.760;2023-02-13T14:52:21;101078.72;;;12.11;35.93
5753;BME280;2901;42.140;24.760;2023-02-13T14:54:55;101070.78;;;12.00;35.80
5753;BME280;2901;42.140;24.760;2023-02-13T14:57:29;101063.81;;;11.96;36.51
5753;BME280;2901;42.140;24.760;2023-02-13T15:00:00;101077.81;;;12.07;36.38
5753;BME280;2901;42.140;24.760;2023-02-13T15:02:32;101070.00;;;12.09;35.87
5753;BME280;2901;42.140;24.760;2023-02-13T15:05:01;101066.53;;;12.05;35.98
5753;BME280;2901;42.140;24.760;2023-02-13T15:07:30;101070.81;;;12.02;35.88
5753;BME280;2901;42.140;24.760;2023-02-13T15:13:01;101061.25;;;11.98;36.39
5753;BME280;2901;42.140;24.760;2023-02-13T15:15:30;101062.91;;;11.95;36.72
5753;BME280;2901;42.140;24.760;2023-02-13T15:18:00;101072.34;;;11.89;37.11
5753;BME280;2901;42.140;24.760;2023-02-13T15:20:29;101063.41;;;11.69;36.85
5753;BME280;2901;42.140;24.760;2023-02-13T15:22:56;101069.41;;;11.66;37.23
5753;BME280;2901;42.140;24.760;2023-02-13T15:25:37;101052.72;;;11.48;37.32
5753;BME280;2901;42.140;24.760;2023-02-13T15:28:05;101073.44;;;11.46;37.62
5753;BME280;2901;42.140;24.760;2023-02-13T15:30:35;101071.41;;;11.27;38.35
5753;BME280;2901;42.140;24.760;2023-02-13T15:33:13;101067.78;;;11.17;38.21
5753;BME280;2901;42.140;24.760;2023-02-13T15:35:40;101069.41;;;11.11;38.48
5753;BME280;2901;42.140;24.760;2023-02-13T15:38:25;101066.78;;;11.06;38.72
5753;BME280;2901;42.140;24.760;2023-02-13T15:40:53;101062.38;;;11.04;39.36
5753;BME280;2901;42.140;24.760;2023-02-13T15:43:26;101064.00;;;10.97;39.39
5753;BME280;2901;42.140;24.760;2023-02-13T15:45:59;101061.25;;;10.86;39.82
5753;BME280;2901;42.140;24.760;2023-02-13T15:48:27;101056.75;;;10.76;40.12